sensor_id;sensor_type;location;lat;lon;timestamp;pressure;altitude;pressure_sealevel;temperature;humidity
39301;BME280;25019;42.626;23.380;2022-11-04T00:01:42;94492.97;;;11.21;68.55
39301;BME280;25019;42.626;23.380;2022-11-04T00:04:10;94504.22;;;11.29;69.01
39301;BME280;25019;42.626;23.380;2022-11-04T00:06:36;94529.13;;;11.45;69.01
39301;BME280;25019;42.626;23.380;2022-11-04T00:09:04;94559.28;;;11.56;69.68
39301;BME280;25019;42.626;23.380;2022-11-04T00:11:30;94555.84;;;11.55;69.74
39301;BME280;25019;42.626;23.380;2022-11-04T00:14:14;94501.72;;;11.17;70.36
39301;BME280;25019;42.626;23.380;2022-11-04T00:16:40;94549.84;;;11.43;70.13
39301;BME280;25019;42.626;23.380;2022-11-04T00:19:25;94492.31;;;11.09;70.10
39301;BME280;25019;42.626;23.380;2022-11-04T00:21:51;94556.81;;;11.49;70.46
39301;BME280;25019;42.626;23.380;2022-11-04T00:24:36;94517.41;;;11.18;70.52
39301;BME280;25019;42.626;23.380;2022-11-04T00:27:08;94442.97;;;10.69;70.78
39301;BME280;25019;42.626;23.380;2022-11-04T00:29:52;94557.56;;;11.44;71.15
39301;BME280;25019;42.626;23.380;2022-11-04T00:32:18;94536.13;;;11.29;71.21
39301;BME280;25019;42.626;23.380;2022-11-04T00:35:03;94532.69;;;11.28;71.58
39301;BME280;25019;42.626;23.380;2022-11-04T00:37:29;94540.13;;;11.31;71.67
39301;BME280;25019;42.626;23.380;2022-11-04T00:39:54;94549.78;;;11.37;71.64
39301;BME280;25019;42.626;23.380;2022-11-04T00:42:20;94537.44;;;11.26;71.67
39301;BME280;25019;42.626;23.380;2022-11-04T00:44:46;94452.19;;;10.61;71.76
39301;BME280;25019;42.626;23.380;2022-11-04T00:47:11;94523.41;;;11.08;71.62
39301;BME280;25019;42.626;23.380;2022-11-04T00:49:37;94453.72;;;10.57;72.21
39301;BME280;25019;42.626;23.380;2022-11-04T00:52:03;94528.41;;;11.05;72.41
39301;BME280;25019;42.626;23.380;2022-11-04T00:54:28;94541.50;;;11.12;72.22
39301;BME280;25019;42.626;23.380;2022-11-04T00:56:54;94539.91;;;11.11;72.39
39301;BME280;25019;42.626;23.380;2022-11-04T00:59:20;94493.63;;;10.84;72.41
39301;BME280;25019;42.626;23.380;2022-11-04T01:01:45;94448.16;;;10.58;72.55
39301;BME280;25019;42.626;23.380;2022-11-04T01:04:11;94331.53;;;9.90;72.15
39301;BME280;25019;42.626;23.380;2022-11-04T01:06:37;94461.88;;;10.72;72.73
39301;BME280;25019;42.626;23.380;2022-11-04T01:09:05;94423.56;;;10.46;72.96
39301;BME280;25019;42.626;23.380;2022-11-04T01:11:32;94500.78;;;10.84;72.61
39301;BME280;25019;42.626;23.380;2022-11-04T01:13:58;94501.59;;;10.84;72.75
39301;BME280;25019;42.626;23.380;2022-11-04T01:16:25;94503.50;;;10.89;73.52
39301;BME280;25019;42.626;23.380;2022-11-04T01:18:51;94481.47;;;10.66;73.38
39301;BME280;25019;42.626;23.380;2022-11-04T01:21:17;94515.75;;;10.90;73.98
39301;BME280;25019;42.626;23.380;2022-11-04T01:23:43;94437.13;;;10.44;73.67
39301;BME280;25019;42.626;23.380;2022-11-04T01:26:15;94379.19;;;10.02;74.45
39301;BME280;25019;42.626;23.380;2022-11-04T01:28:41;94499.13;;;10.77;74.81
39301;BME280;25019;42.626;23.380;2022-11-04T01:31:08;94495.66;;;10.77;75.06
39301;BME280;25019;42.626;23.380;2022-11-04T01:33:33;94478.25;;;10.64;75.73
39301;BME280;25019;42.626;23.380;2022-11-04T01:35:59;94469.41;;;10.58;75.33
39301;BME280;25019;42.626;23.380;2022-11-04T01:38:25;94502.81;;;10.76;75.40
39301;BME280;25019;42.626;23.380;2022-11-04T01:40:51;94384.19;;;9.98;75.65
39301;BME280;25019;42.626;23.380;2022-11-04T01:43:19;94496.94;;;10.74;75.31
39301;BME280;25019;42.626;23.380;2022-11-04T01:45:58;94406.66;;;10.13;75.62
39301;BME280;25019;42.626;23.380;2022-11-04T01:48:30;94443.47;;;10.43;75.92
39301;BME280;25019;42.626;23.380;2022-11-04T01:50:58;94470.69;;;10.56;75.71
39301;BME280;25019;42.626;23.380;2022-11-04T01:53:27;94484.84;;;10.61;76.09
39301;BME280;25019;42.626;23.380;2022-11-04T01:55:57;94436.94;;;10.34;76.52
39301;BME280;25019;42.626;23.380;2022-11-04T01:58:26;94482.44;;;10.60;76.88
39301;BME280;25019;42.626;23.380;2022-11-04T02:00:53;94461.50;;;10.41;77.20
39301;BME280;25019;42.626;23.380;2022-11-04T02:03:49;94481.88;;;10.58;77.43
39301;BME280;25019;42.626;23.380;2022-11-04T02:06:18;94413.75;;;10.07;77.44
39301;BME280;25019;42.626;23.380;2022-11-04T02:08:44;94475.22;;;10.55;78.30
39301;BME280;25019;42.626;23.380;2022-11-04T02:11:11;94476.75;;;10.51;79.01
39301;BME280;25019;42.626;23.380;2022-11-04T02:13:57;94459.63;;;10.42;79.40
39301;BME280;25019;42.626;23.380;2022-11-04T02:16:43;94426.63;;;10.15;79.73
39301;BME280;25019;42.626;23.380;2022-11-04T02:22:32;94464.72;;;10.43;80.08
39301;BME280;25019;42.626;23.380;2022-11-04T02:30:52;94386.06;;;9.81;81.30
39301;BME280;25019;42.626;23.380;2022-11-04T02:33:46;94423.72;;;10.00;81.32
39301;BME280;25019;42.626;23.380;2022-11-04T02:38:54;94396.34;;;9.94;82.75
39301;BME280;25019;42.626;23.380;2022-11-04T02:42:00;94460.56;;;10.35;82.38
39301;BME280;25019;42.626;23.380;2022-11-04T02:44:20;94408.53;;;10.12;82.54
39301;BME280;25019;42.626;23.380;2022-11-04T02:46:52;94456.75;;;10.43;81.95
39301;BME280;25019;42.626;23.380;2022-11-04T02:54:46;94422.72;;;10.23;81.73
39301;BME280;25019;42.626;23.380;2022-11-04T02:57:18;94431.31;;;10.30;80.97
39301;BME280;25019;42.626;23.380;2022-11-04T03:00:05;94450.41;;;10.27;80.56
39301;BME280;25019;42.626;23.380;2022-11-04T03:02:39;94429.00;;;10.17;80.66
39301;BME280;25019;42.626;23.380;2022-11-04T03:05:08;94443.41;;;10.21;80.64
39301;BME280;25019;42.626;23.380;2022-11-04T03:07:38;94378.44;;;9.67;80.35
39301;BME280;25019;42.626;23.380;2022-11-04T03:10:08;94437.66;;;9.90;80.49
39301;BME280;25019;42.626;23.380;2022-11-04T03:12:41;94473.09;;;10.01;79.52
39301;BME280;25019;42.626;23.380;2022-11-04T03:15:16;94419.75;;;9.63;78.52
39301;BME280;25019;42.626;23.380;2022-11-04T03:17:57;94448.84;;;9.75;78.09
39301;BME280;25019;42.626;23.380;2022-11-04T03:20:26;94317.72;;;8.80;78.47
39301;BME280;25019;42.626;23.380;2022-11-04T03:22:54;94429.03;;;9.49;78.54
39301;BME280;25019;42.626;23.380;2022-11-04T03:25:27;94467.22;;;9.65;78.92
39301;BME280;25019;42.626;23.380;2022-11-04T03:28:03;94453.72;;;9.49;78.83
39301;BME280;25019;42.626;23.380;2022-11-04T03:30:41;94441.69;;;9.41;79.43
39301;BME280;25019;42.626;23.380;2022-11-04T03:33:18;94457.66;;;9.47;79.92
39301;BME280;25019;42.626;23.380;2022-11-04T03:35:49;94355.97;;;8.73;81.27
39301;BME280;25019;42.626;23.380;2022-11-04T03:38:15;94461.59;;;9.44;81.11
39301;BME280;25019;42.626;23.380;2022-11-04T03:40:40;94448.72;;;9.36;81.39
39301;BME280;25019;42.626;23.380;2022-11-04T03:43:10;94335.44;;;8.63;81.99
39301;BME280;25019;42.626;23.380;2022-11-04T03:45:38;94411.66;;;9.07;83.42
39301;BME280;25019;42.626;23.380;2022-11-04T03:48:04;94392.59;;;8.93;84.08
39301;BME280;25019;42.626;23.380;2022-11-04T03:50:32;94457.41;;;9.31;86.52
39301;BME280;25019;42.626;23.380;2022-11-04T03:53:00;94378.16;;;8.83;87.55
39301;BME280;25019;42.626;23.380;2022-11-04T03:55:47;94457.66;;;9.29;88.51
39301;BME280;25019;42.626;23.380;2022-11-04T04:01:20;94457.66;;;9.29;88.94
39301;BME280;25019;42.626;23.380;2022-11-04T04:04:00;94443.94;;;9.21;89.46
39301;BME280;25019;42.626;23.380;2022-11-04T04:06:33;94452.25;;;9.24;89.82
39301;BME280;25019;42.626;23.380;2022-11-04T04:09:14;94455.13;;;9.23;89.69
39301;BME280;25019;42.626;23.380;2022-11-04T04:11:44;94448.47;;;9.20;89.76
39301;BME280;25019;42.626;23.380;2022-11-04T04:14:33;94446.28;;;9.17;90.14
39301;BME280;25019;42.626;23.380;2022-11-04T04:17:26;94286.72;;;8.06;90.16
39301;BME280;25019;42.626;23.380;2022-11-04T04:20:03;94449.88;;;9.11;90.67
39301;BME280;25019;42.626;23.380;2022-11-04T04:22:33;94447.69;;;9.08;90.65
39301;BME280;25019;42.626;23.380;2022-11-04T04:25:04;94365.03;;;8.48;90.94
39301;BME280;25019;42.626;23.380;2022-11-04T04:27:50;94391.56;;;8.65;90.66
39301;BME280;25019;42.626;23.380;2022-11-04T04:30:18;94449.13;;;8.98;90.46
39301;BME280;25019;42.626;23.380;2022-11-04T04:32:53;94439.16;;;8.89;90.49
39301;BME280;25019;42.626;23.380;2022-11-04T04:35:26;94414.59;;;8.64;90.42
39301;BME280;25019;42.626;23.380;2022-11-04T04:38:22;94429.78;;;8.69;91.08
39301;BME280;25019;42.626;23.380;2022-11-04T04:41:19;94440.63;;;8.67;90.03
39301;BME280;25019;42.626;23.380;2022-11-04T04:44:10;94413.72;;;8.47;90.21
39301;BME280;25019;42.626;23.380;2022-11-04T04:46:58;94419.94;;;8.40;90.22
39301;BME280;25019;42.626;23.380;2022-11-04T04:49:26;94425.94;;;8.36;90.53
39301;BME280;25019;42.626;23.380;2022-11-04T04:52:01;94381.13;;;8.05;90.12
39301;BME280;25019;42.626;23.380;2022-11-04T04:54:30;94450.31;;;8.38;90.43
39301;BME280;25019;42.626;23.380;2022-11-04T04:56:56;94355.50;;;7.70;90.81
39301;BME280;25019;42.626;23.380;2022-11-04T04:59:22;94408.72;;;8.09;90.90
39301;BME280;25019;42.626;23.380;2022-11-04T05:01:50;94449.06;;;8.29;91.25
39301;BME280;25019;42.626;23.380;2022-11-04T05:04:16;94369.09;;;7.74;91.58
39301;BME280;25019;42.626;23.380;2022-11-04T05:06:42;94347.13;;;7.61;91.57
39301;BME280;25019;42.626;23.380;2022-11-04T05:09:07;94323.81;;;7.46;91.37
39301;BME280;25019;42.626;23.380;2022-11-04T05:11:33;94449.84;;;8.29;91.67
39301;BME280;25019;42.626;23.380;2022-11-04T05:13:59;94345.50;;;7.60;91.69
39301;BME280;25019;42.626;23.380;2022-11-04T05:16:25;94324.16;;;7.50;91.33
39301;BME280;25019;42.626;23.380;2022-11-04T05:18:51;94361.72;;;7.76;91.21
39301;BME280;25019;42.626;23.380;2022-11-04T05:21:16;94456.63;;;8.37;91.38
39301;BME280;25019;42.626;23.380;2022-11-04T05:23:42;94459.06;;;8.38;91.60
39301;BME280;25019;42.626;23.380;2022-11-04T05:26:08;94458.13;;;8.45;91.70
39301;BME280;25019;42.626;23.380;2022-11-04T05:28:34;94410.06;;;8.12;91.54
39301;BME280;25019;42.626;23.380;2022-11-04T05:31:04;94458.28;;;8.50;91.10
39301;BME280;25019;42.626;23.380;2022-11-04T05:33:30;94464.78;;;8.47;90.19
39301;BME280;25019;42.626;23.380;2022-11-04T05:36:22;94443.19;;;8.38;90.85
39301;BME280;25019;42.626;23.380;2022-11-04T05:38:52;94465.63;;;8.48;90.81
39301;BME280;25019;42.626;23.380;2022-11-04T05:41:20;94434.09;;;8.34;90.86
39301;BME280;25019;42.626;23.380;2022-11-04T05:44:02;94456.66;;;8.49;91.52
39301;BME280;25019;42.626;23.380;2022-11-04T05:46:28;94452.03;;;8.56;91.49
39301;BME280;25019;42.626;23.380;2022-11-04T05:48:54;94479.47;;;8.79;91.16
39301;BME280;25019;42.626;23.380;2022-11-04T05:51:26;94480.03;;;8.81;91.09
39301;BME280;25019;42.626;23.380;2022-11-04T05:53:52;94485.81;;;8.90;90.87
39301;BME280;25019;42.626;23.380;2022-11-04T05:56:18;94374.97;;;8.29;91.10
39301;BME280;25019;42.626;23.380;2022-11-04T05:58:43;94454.84;;;8.78;90.11
39301;BME280;25019;42.626;23.380;2022-11-04T06:01:37;94477.00;;;9.01;89.87
39301;BME280;25019;42.626;23.380;2022-11-04T06:04:04;94483.44;;;9.05;89.58
39301;BME280;25019;42.626;23.380;2022-11-04T06:06:33;94499.19;;;9.12;90.06
39301;BME280;25019;42.626;23.380;2022-11-04T06:08:59;94419.19;;;8.69;90.45
39301;BME280;25019;42.626;23.380;2022-11-04T06:11:27;94495.69;;;9.23;90.02
39301;BME280;25019;42.626;23.380;2022-11-04T06:13:54;94495.69;;;9.23;90.13
39301;BME280;25019;42.626;23.380;2022-11-04T06:16:22;94491.53;;;9.27;89.77
39301;BME280;25019;42.626;23.380;2022-11-04T06:18:48;94416.16;;;8.77;90.11
39301;BME280;25019;42.626;23.380;2022-11-04T06:23:43;94403.19;;;8.76;90.22
39301;BME280;25019;42.626;23.380;2022-11-04T06:26:10;94484.88;;;9.42;89.47
39301;BME280;25019;42.626;23.380;2022-11-04T06:28:36;94488.13;;;9.61;89.61
39301;BME280;25019;42.626;23.380;2022-11-04T06:31:04;94485.56;;;9.66;89.33
39301;BME280;25019;42.626;23.380;2022-11-04T06:33:30;94498.00;;;9.83;88.70
39301;BME280;25019;42.626;23.380;2022-11-04T06:36:00;94488.22;;;10.00;89.31
39301;BME280;25019;42.626;23.380;2022-11-04T06:38:28;94488.69;;;10.14;88.87
39301;BME280;25019;42.626;23.380;2022-11-04T06:40:55;94482.25;;;10.27;89.12
39301;BME280;25019;42.626;23.380;2022-11-04T06:43:21;94486.50;;;10.45;89.03
39301;BME280;25019;42.626;23.380;2022-11-04T06:45:53;94484.22;;;10.54;88.54
39301;BME280;25019;42.626;23.380;2022-11-04T06:48:19;94487.56;;;10.67;88.81
39301;BME280;25019;42.626;23.380;2022-11-04T06:50:45;94486.66;;;10.78;87.97
39301;BME280;25019;42.626;23.380;2022-11-04T06:53:10;94491.28;;;10.88;88.31
39301;BME280;25019;42.626;23.380;2022-11-04T06:55:36;94451.50;;;10.71;87.43
39301;BME280;25019;42.626;23.380;2022-11-04T06:58:02;94476.75;;;10.96;87.46
39301;BME280;25019;42.626;23.380;2022-11-04T07:00:27;94468.72;;;10.90;86.17
39301;BME280;25019;42.626;23.380;2022-11-04T07:02:53;94484.84;;;11.06;85.86
39301;BME280;25019;42.626;23.380;2022-11-04T07:05:19;94484.09;;;11.11;85.90
39301;BME280;25019;42.626;23.380;2022-11-04T07:07:44;94426.66;;;10.82;85.35
39301;BME280;25019;42.626;23.380;2022-11-04T07:10:10;94443.75;;;10.91;85.52
39301;BME280;25019;42.626;23.380;2022-11-04T07:12:36;94463.09;;;11.09;85.57
39301;BME280;25019;42.626;23.380;2022-11-04T07:15:02;94477.91;;;11.27;85.13
39301;BME280;25019;42.626;23.380;2022-11-04T07:17:28;94457.84;;;11.14;85.15
39301;BME280;25019;42.626;23.380;2022-11-04T07:19:53;94462.38;;;11.19;84.98
39301;BME280;25019;42.626;23.380;2022-11-04T07:22:19;94415.66;;;10.73;85.61
39301;BME280;25019;42.626;23.380;2022-11-04T07:24:45;94477.84;;;11.22;85.48
39301;BME280;25019;42.626;23.380;2022-11-04T07:27:10;94425.41;;;10.90;85.03
39301;BME280;25019;42.626;23.380;2022-11-04T07:29:36;94453.66;;;10.96;86.34
39301;BME280;25019;42.626;23.380;2022-11-04T07:32:03;94342.06;;;10.24;86.27
39301;BME280;25019;42.626;23.380;2022-11-04T07:34:29;94385.22;;;10.59;85.81
39301;BME280;25019;42.626;23.380;2022-11-04T07:36:54;94386.50;;;10.78;85.39
39301;BME280;25019;42.626;23.380;2022-11-04T07:39:20;94353.63;;;10.57;85.62
39301;BME280;25019;42.626;23.380;2022-11-04T07:41:45;94454.81;;;11.33;84.54
39301;BME280;25019;42.626;23.380;2022-11-04T07:44:11;94422.81;;;11.22;84.25
39301;BME280;25019;42.626;23.380;2022-11-04T07:46:37;94445.34;;;11.42;84.09
39301;BME280;25019;42.626;23.380;2022-11-04T07:49:03;94446.22;;;11.53;84.02
39301;BME280;25019;42.626;23.380;2022-11-04T07:51:29;94446.47;;;11.51;83.61
39301;BME280;25019;42.626;23.380;2022-11-04T07:53:58;94338.69;;;10.78;83.12
39301;BME280;25019;42.626;23.380;2022-11-04T07:56:24;94375.38;;;11.09;83.18
39301;BME280;25019;42.626;23.380;2022-11-04T07:58:50;94443.13;;;11.66;82.75
39301;BME280;25019;42.626;23.380;2022-11-04T08:01:20;94337.47;;;10.91;82.78
39301;BME280;25019;42.626;23.380;2022-11-04T08:03:48;94375.72;;;11.18;83.18
39301;BME280;25019;42.626;23.380;2022-11-04T08:06:16;94363.72;;;11.15;83.00
39301;BME280;25019;42.626;23.380;2022-11-04T08:08:42;94432.00;;;11.69;82.58
39301;BME280;25019;42.626;23.380;2022-11-04T08:11:14;94430.97;;;11.76;82.10
39301;BME280;25019;42.626;23.380;2022-11-04T08:13:40;94421.25;;;11.59;81.97
39301;BME280;25019;42.626;23.380;2022-11-04T08:16:09;94337.47;;;11.19;81.38
39301;BME280;25019;42.626;23.380;2022-11-04T08:18:38;94433.22;;;11.94;81.22
39301;BME280;25019;42.626;23.380;2022-11-04T08:21:05;94376.63;;;11.66;80.76
39301;BME280;25019;42.626;23.380;2022-11-04T08:23:31;94391.25;;;11.64;80.62
39301;BME280;25019;42.626;23.380;2022-11-04T08:25:57;94377.91;;;11.59;80.74
39301;BME280;25019;42.626;23.380;2022-11-04T08:28:23;94415.22;;;12.02;80.37
39301;BME280;25019;42.626;23.380;2022-11-04T08:33:34;94416.94;;;12.23;79.37
39301;BME280;25019;42.626;23.380;2022-11-04T08:36:25;94341.91;;;11.83;78.89
39301;BME280;25019;42.626;23.380;2022-11-04T08:38:49;94276.56;;;11.55;78.28
39301;BME280;25019;42.626;23.380;2022-11-04T08:41:18;94390.13;;;12.40;78.26
39301;BME280;25019;42.626;23.380;2022-11-04T08:43:45;94401.34;;;12.42;78.36
39301;BME280;25019;42.626;23.380;2022-11-04T08:46:12;94393.38;;;12.48;77.98
39301;BME280;25019;42.626;23.380;2022-11-04T08:48:39;94396.34;;;12.62;77.78
39301;BME280;25019;42.626;23.380;2022-11-04T08:51:11;94397.72;;;12.69;77.14
39301;BME280;25019;42.626;23.380;2022-11-04T08:53:37;94392.88;;;12.61;76.62
39301;BME280;25019;42.626;23.380;2022-11-04T08:56:11;94397.22;;;12.78;76.29
39301;BME280;25019;42.626;23.380;2022-11-04T08:58:36;94272.59;;;12.11;75.45
39301;BME280;25019;42.626;23.380;2022-11-04T09:01:03;94314.22;;;12.43;75.21
39301;BME280;25019;42.626;23.380;2022-11-04T09:03:29;94394.31;;;13.00;75.14
39301;BME280;25019;42.626;23.380;2022-11-04T09:05:56;94322.81;;;12.61;73.98
39301;BME280;25019;42.626;23.380;2022-11-04T09:08:22;94370.34;;;13.10;74.22
39301;BME280;25019;42.626;23.380;2022-11-04T09:10:48;94349.31;;;13.09;73.44
39301;BME280;25019;42.626;23.380;2022-11-04T09:13:14;94369.06;;;13.33;72.98
39301;BME280;25019;42.626;23.380;2022-11-04T09:15:40;94337.81;;;13.29;72.67
39301;BME280;25019;42.626;23.380;2022-11-04T09:18:06;94352.78;;;13.56;71.85
39301;BME280;25019;42.626;23.380;2022-11-04T09:20:31;94293.56;;;13.33;71.43
39301;BME280;25019;42.626;23.380;2022-11-04T09:22:58;94357.03;;;13.83;70.88
39301;BME280;25019;42.626;23.380;2022-11-04T09:25:23;94356.75;;;13.94;70.10
39301;BME280;25019;42.626;23.380;2022-11-04T09:27:49;94337.78;;;13.96;70.07
39301;BME280;25019;42.626;23.380;2022-11-04T09:30:15;94350.06;;;14.02;69.70
39301;BME280;25019;42.626;23.380;2022-11-04T09:32:41;94339.16;;;13.93;69.98
39301;BME280;25019;42.626;23.380;2022-11-04T09:35:07;94339.88;;;14.15;69.24
39301;BME280;25019;42.626;23.380;2022-11-04T09:37:33;94298.00;;;14.00;68.48
39301;BME280;25019;42.626;23.380;2022-11-04T09:39:58;94324.91;;;14.14;68.54
39301;BME280;25019;42.626;23.380;2022-11-04T09:42:49;94326.72;;;14.34;67.63
39301;BME280;25019;42.626;23.380;2022-11-04T09:45:23;94317.88;;;14.38;67.77
39301;BME280;25019;42.626;23.380;2022-11-04T09:47:54;94316.78;;;14.50;67.00
39301;BME280;25019;42.626;23.380;2022-11-04T09:50:26;94311.66;;;14.59;65.98
39301;BME280;25019;42.626;23.380;2022-11-04T09:52:57;94280.72;;;14.47;65.89
39301;BME280;25019;42.626;23.380;2022-11-04T09:58:12;94264.16;;;14.45;65.11
39301;BME280;25019;42.626;23.380;2022-11-04T10:00:40;94300.94;;;14.69;65.11
39301;BME280;25019;42.626;23.380;2022-11-04T10:03:43;94284.81;;;14.79;65.01
39301;BME280;25019;42.626;23.380;2022-11-04T10:11:54;94257.25;;;14.89;63.48
39301;BME280;25019;42.626;23.380;2022-11-04T10:14:46;94275.66;;;15.25;63.11
39301;BME280;25019;42.626;23.380;2022-11-04T10:22:54;94257.72;;;15.31;62.35
39301;BME280;25019;42.626;23.380;2022-11-04T10:25:26;94240.28;;;15.34;62.22
39301;BME280;25019;42.626;23.380;2022-11-04T10:27:54;94243.44;;;15.41;61.78
39301;BME280;25019;42.626;23.380;2022-11-04T10:30:22;94230.09;;;15.36;61.62
39301;BME280;25019;42.626;23.380;2022-11-04T10:33:12;94238.88;;;15.41;61.78
39301;BME280;25019;42.626;23.380;2022-11-04T10:35:44;94225.28;;;15.38;61.59
39301;BME280;25019;42.626;23.380;2022-11-04T10:40:40;94147.47;;;15.05;61.62
39301;BME280;25019;42.626;23.380;2022-11-04T10:43:09;94200.56;;;15.46;61.20
39301;BME280;25019;42.626;23.380;2022-11-04T10:46:00;94199.06;;;15.35;61.44
39301;BME280;25019;42.626;23.380;2022-11-04T10:48:35;94209.34;;;15.52;61.72
39301;BME280;25019;42.626;23.380;2022-11-04T10:51:03;94168.56;;;15.36;61.04
39301;BME280;25019;42.626;23.380;2022-11-04T10:53:31;94190.03;;;15.55;61.00
39301;BME280;25019;42.626;23.380;2022-11-04T10:58:45;94192.19;;;15.77;60.45
39301;BME280;25019;42.626;23.380;2022-11-04T11:01:29;94183.06;;;15.78;60.20
39301;BME280;25019;42.626;23.380;2022-11-04T11:03:57;94164.94;;;15.75;60.11
39301;BME280;25019;42.626;23.380;2022-11-04T11:06:31;94167.47;;;15.85;60.30
39301;BME280;25019;42.626;23.380;2022-11-04T11:09:13;94098.31;;;15.25;60.48
39301;BME280;25019;42.626;23.380;2022-11-04T11:11:46;94151.81;;;15.73;60.03
39301;BME280;25019;42.626;23.380;2022-11-04T11:16:47;94148.72;;;15.85;60.88
39301;BME280;25019;42.626;23.380;2022-11-04T11:22:02;94143.47;;;15.99;59.46
39301;BME280;25019;42.626;23.380;2022-11-04T11:24:27;94108.50;;;15.91;59.39
39301;BME280;25019;42.626;23.380;2022-11-04T11:27:08;94107.56;;;16.00;58.98
39301;BME280;25019;42.626;23.380;2022-11-04T11:29:38;94128.94;;;16.06;58.85
39301;BME280;25019;42.626;23.380;2022-11-04T11:32:29;94102.28;;;16.14;58.66
39301;BME280;25019;42.626;23.380;2022-11-04T11:34:56;94107.34;;;16.35;58.11
39301;BME280;25019;42.626;23.380;2022-11-04T11:37:26;94112.69;;;16.35;57.17
39301;BME280;25019;42.626;23.380;2022-11-04T11:39:56;94099.81;;;16.37;57.22
39301;BME280;25019;42.626;23.380;2022-11-04T11:42:22;94092.00;;;16.41;57.01
39301;BME280;25019;42.626;23.380;2022-11-04T11:44:53;94082.75;;;16.47;56.47
39301;BME280;25019;42.626;23.380;2022-11-04T11:47:21;94088.91;;;16.67;56.28
39301;BME280;25019;42.626;23.380;2022-11-04T11:52:39;94073.22;;;16.88;55.73
39301;BME280;25019;42.626;23.380;2022-11-04T11:55:14;94040.75;;;16.75;55.15
39301;BME280;25019;42.626;23.380;2022-11-04T11:57:50;94062.91;;;16.95;54.26
39301;BME280;25019;42.626;23.380;2022-11-04T12:00:17;94027.63;;;16.88;53.98
39301;BME280;25019;42.626;23.380;2022-11-04T12:02:55;94059.88;;;17.16;53.66
39301;BME280;25019;42.626;23.380;2022-11-04T12:05:36;93955.84;;;16.57;53.64
39301;BME280;25019;42.626;23.380;2022-11-04T12:13:43;94045.47;;;17.26;52.62
39301;BME280;25019;42.626;23.380;2022-11-04T12:19:21;94044.25;;;17.32;51.75
39301;BME280;25019;42.626;23.380;2022-11-04T12:22:16;94041.06;;;17.44;52.74
39301;BME280;25019;42.626;23.380;2022-11-04T12:27:54;94033.31;;;17.56;52.05
39301;BME280;25019;42.626;23.380;2022-11-04T12:30:23;94038.66;;;17.70;51.41
39301;BME280;25019;42.626;23.380;2022-11-04T12:38:52;94046.25;;;18.05;50.54
39301;BME280;25019;42.626;23.380;2022-11-04T12:52:54;94015.16;;;18.12;50.47
39301;BME280;25019;42.626;23.380;2022-11-04T12:58:01;94021.94;;;18.33;49.98
39301;BME280;25019;42.626;23.380;2022-11-04T13:00:33;94019.44;;;18.14;50.13
39301;BME280;25019;42.626;23.380;2022-11-04T13:03:10;94002.91;;;18.20;50.09
39301;BME280;25019;42.626;23.380;2022-11-04T13:05:49;94029.22;;;18.32;50.11
39301;BME280;25019;42.626;23.380;2022-11-04T13:08:39;94023.16;;;18.26;49.89
39301;BME280;25019;42.626;23.380;2022-11-04T13:11:11;93999.34;;;18.11;49.94
39301;BME280;25019;42.626;23.380;2022-11-04T13:16:22;94009.88;;;18.21;50.03
39301;BME280;25019;42.626;23.380;2022-11-04T13:18:49;94002.91;;;18.20;49.90
39301;BME280;25019;42.626;23.380;2022-11-04T13:21:20;93959.19;;;17.69;49.82
39301;BME280;25019;42.626;23.380;2022-11-04T13:24:00;94020.09;;;17.96;50.63
39301;BME280;25019;42.626;23.380;2022-11-04T13:26:29;94024.13;;;18.08;50.65
39301;BME280;25019;42.626;23.380;2022-11-04T13:29:11;93922.00;;;17.40;50.64
39301;BME280;25019;42.626;23.380;2022-11-04T13:37:27;94015.53;;;18.20;50.32
39301;BME280;25019;42.626;23.380;2022-11-04T13:40:14;94019.44;;;18.14;50.17
39301;BME280;25019;42.626;23.380;2022-11-04T13:43:10;94011.25;;;18.19;48.97
39301;BME280;25019;42.626;23.380;2022-11-04T13:45:59;93942.69;;;17.85;49.18
39301;BME280;25019;42.626;23.380;2022-11-04T13:48:28;93960.09;;;18.01;49.45
39301;BME280;25019;42.626;23.380;2022-11-04T13:51:21;94009.59;;;18.32;49.43
39301;BME280;25019;42.626;23.380;2022-11-04T13:56:37;94003.13;;;18.33;49.34
39301;BME280;25019;42.626;23.380;2022-11-04T13:59:28;94004.72;;;18.34;48.42
39301;BME280;25019;42.626;23.380;2022-11-04T14:02:31;93985.47;;;18.18;48.99
39301;BME280;25019;42.626;23.380;2022-11-04T14:16:03;94008.28;;;17.84;51.30
39301;BME280;25019;42.626;23.380;2022-11-04T14:18:34;93974.31;;;17.65;51.19
39301;BME280;25019;42.626;23.380;2022-11-04T14:21:14;93988.41;;;17.71;51.43
39301;BME280;25019;42.626;23.380;2022-11-04T14:23:55;93970.47;;;17.57;51.68
39301;BME280;25019;42.626;23.380;2022-11-04T14:26:25;93989.66;;;17.64;51.89
39301;BME280;25019;42.626;23.380;2022-11-04T14:29:05;93962.44;;;17.43;51.72
39301;BME280;25019;42.626;23.380;2022-11-04T14:31:39;93999.69;;;17.59;51.87
39301;BME280;25019;42.626;23.380;2022-11-04T14:34:06;93908.75;;;16.92;51.99
39301;BME280;25019;42.626;23.380;2022-11-04T14:36:39;93924.84;;;16.92;51.93
39301;BME280;25019;42.626;23.380;2022-11-04T14:44:13;93990.59;;;17.32;51.96
39301;BME280;25019;42.626;23.380;2022-11-04T14:46:43;93993.41;;;17.27;51.80
39301;BME280;25019;42.626;23.380;2022-11-04T14:51:54;93993.50;;;17.07;52.42
39301;BME280;25019;42.626;23.380;2022-11-04T14:54:21;93986.84;;;17.05;52.68
39301;BME280;25019;42.626;23.380;2022-11-04T14:56:52;93976.09;;;16.91;52.89
39301;BME280;25019;42.626;23.380;2022-11-04T14:59:26;93986.53;;;16.92;53.36
39301;BME280;25019;42.626;23.380;2022-11-04T15:01:52;93964.06;;;16.74;53.61
39301;BME280;25019;42.626;23.380;2022-11-04T15:04:25;93980.16;;;16.74;52.96
39301;BME280;25019;42.626;23.380;2022-11-04T15:06:55;93977.56;;;16.69;53.27
39301;BME280;25019;42.626;23.380;2022-11-04T15:09:32;93894.31;;;16.05;54.31